sensor_id;sensor_type;location;lat;lon;timestamp;P1;durP1;ratioP1;P2;durP2;ratioP2
65971;SDS011;52726;48.852;9.152;2023-07-08T00:00:14;8.13;;;4.50;;
65971;SDS011;52726;48.852;9.152;2023-07-08T00:02:42;9.65;;;4.78;;
65971;SDS011;52726;48.852;9.152;2023-07-08T00:05:08;7.90;;;4.15;;
65971;SDS011;52726;48.852;9.152;2023-07-08T00:07:36;6.47;;;4.13;;
65971;SDS011;52726;48.852;9.152;2023-07-08T00:10:01;7.88;;;4.60;;
65971;SDS011;52726;48.852;9.152;2023-07-08T00:12:33;7.68;;;4.07;;
65971;SDS011;52726;48.852;9.152;2023-07-08T00:14:58;9.82;;;4.85;;
65971;SDS011;52726;48.852;9.152;2023-07-08T00:17:24;8.10;;;4.82;;
65971;SDS011;52726;48.852;9.152;2023-07-08T00:19:51;8.95;;;4.32;;
65971;SDS011;52726;48.852;9.152;2023-07-08T00:22:19;8.50;;;4.35;;
65971;SDS011;52726;48.852;9.152;2023-07-08T00:24:44;9.00;;;4.68;;
65971;SDS011;52726;48.852;9.152;2023-07-08T00:27:10;14.52;;;5.00;;
65971;SDS011;52726;48.852;9.152;2023-07-08T00:29:37;15.60;;;5.35;;
65971;SDS011;52726;48.852;9.152;2023-07-08T00:32:07;9.98;;;5.00;;
65971;SDS011;52726;48.852;9.152;2023-07-08T00:34:37;11.15;;;5.93;;
65971;SDS011;52726;48.852;9.152;2023-07-08T00:37:03;14.43;;;6.90;;
65971;SDS011;52726;48.852;9.152;2023-07-08T00:39:30;12.70;;;5.20;;
65971;SDS011;52726;48.852;9.152;2023-07-08T00:41:56;10.60;;;4.82;;
65971;SDS011;52726;48.852;9.152;2023-07-08T00:44:32;9.60;;;4.90;;
65971;SDS011;52726;48.852;9.152;2023-07-08T00:47:02;7.88;;;4.45;;
65971;SDS011;52726;48.852;9.152;2023-07-08T00:49:45;6.93;;;4.10;;
65971;SDS011;52726;48.852;9.152;2023-07-08T00:54:54;12.85;;;5.90;;
65971;SDS011;52726;48.852;9.152;2023-07-08T00:57:22;15.30;;;6.32;;
65971;SDS011;52726;48.852;9.152;2023-07-08T00:59:54;11.93;;;6.50;;
65971;SDS011;52726;48.852;9.152;2023-07-08T01:02:25;13.55;;;7.50;;
65971;SDS011;52726;48.852;9.152;2023-07-08T01:07:25;9.73;;;5.35;;
65971;SDS011;52726;48.852;9.152;2023-07-08T01:09:52;9.10;;;5.40;;
65971;SDS011;52726;48.852;9.152;2023-07-08T01:12:31;9.45;;;5.18;;
65971;SDS011;52726;48.852;9.152;2023-07-08T01:15:02;10.10;;;4.97;;
65971;SDS011;52726;48.852;9.152;2023-07-08T01:17:28;12.27;;;5.60;;
65971;SDS011;52726;48.852;9.152;2023-07-08T01:19:58;10.50;;;5.53;;
65971;SDS011;52726;48.852;9.152;2023-07-08T01:22:38;11.00;;;6.13;;
65971;SDS011;52726;48.852;9.152;2023-07-08T01:25:04;12.32;;;6.20;;
65971;SDS011;52726;48.852;9.152;2023-07-08T01:27:31;12.07;;;5.47;;
65971;SDS011;52726;48.852;9.152;2023-07-08T01:30:00;10.48;;;4.88;;
65971;SDS011;52726;48.852;9.152;2023-07-08T01:32:27;8.10;;;4.63;;
65971;SDS011;52726;48.852;9.152;2023-07-08T01:34:57;8.90;;;4.75;;
65971;SDS011;52726;48.852;9.152;2023-07-08T01:37:29;9.90;;;4.50;;
65971;SDS011;52726;48.852;9.152;2023-07-08T01:42:43;8.27;;;4.55;;
65971;SDS011;52726;48.852;9.152;2023-07-08T01:45:13;10.07;;;4.80;;
65971;SDS011;52726;48.852;9.152;2023-07-08T01:47:44;8.98;;;4.93;;
65971;SDS011;52726;48.852;9.152;2023-07-08T01:50:16;10.07;;;4.65;;
65971;SDS011;52726;48.852;9.152;2023-07-08T01:52:43;8.95;;;4.32;;
65971;SDS011;52726;48.852;9.152;2023-07-08T01:55:08;10.77;;;4.40;;
65971;SDS011;52726;48.852;9.152;2023-07-08T01:57:34;7.90;;;4.38;;
65971;SDS011;52726;48.852;9.152;2023-07-08T01:59:59;9.82;;;4.80;;
65971;SDS011;52726;48.852;9.152;2023-07-08T02:02:24;11.45;;;4.72;;
65971;SDS011;52726;48.852;9.152;2023-07-08T02:04:53;8.93;;;4.45;;
65971;SDS011;52726;48.852;9.152;2023-07-08T02:07:25;11.68;;;4.72;;
65971;SDS011;52726;48.852;9.152;2023-07-08T02:09:50;9.18;;;5.18;;
65971;SDS011;52726;48.852;9.152;2023-07-08T02:12:15;8.55;;;4.72;;
65971;SDS011;52726;48.852;9.152;2023-07-08T02:14:40;9.50;;;5.38;;
65971;SDS011;52726;48.852;9.152;2023-07-08T02:17:06;11.23;;;4.40;;
65971;SDS011;52726;48.852;9.152;2023-07-08T02:19:31;10.25;;;4.28;;
65971;SDS011;52726;48.852;9.152;2023-07-08T02:21:57;9.68;;;4.60;;
65971;SDS011;52726;48.852;9.152;2023-07-08T02:24:22;7.72;;;4.47;;
65971;SDS011;52726;48.852;9.152;2023-07-08T02:26:50;9.57;;;4.65;;
65971;SDS011;52726;48.852;9.152;2023-07-08T02:29:25;9.05;;;4.65;;
65971;SDS011;52726;48.852;9.152;2023-07-08T02:31:51;8.05;;;4.40;;
65971;SDS011;52726;48.852;9.152;2023-07-08T02:34:20;9.57;;;4.40;;
65971;SDS011;52726;48.852;9.152;2023-07-08T02:36:45;9.80;;;4.45;;
65971;SDS011;52726;48.852;9.152;2023-07-08T02:39:12;9.00;;;4.22;;
65971;SDS011;52726;48.852;9.152;2023-07-08T02:41:37;8.40;;;4.50;;
65971;SDS011;52726;48.852;9.152;2023-07-08T02:44:03;8.75;;;4.95;;
65971;SDS011;52726;48.852;9.152;2023-07-08T02:46:28;10.82;;;5.07;;
65971;SDS011;52726;48.852;9.152;2023-07-08T02:48:53;8.32;;;4.78;;
65971;SDS011;52726;48.852;9.152;2023-07-08T02:51:19;8.80;;;4.47;;
65971;SDS011;52726;48.852;9.152;2023-07-08T02:53:44;10.50;;;4.53;;
65971;SDS011;52726;48.852;9.152;2023-07-08T02:56:09;7.45;;;4.65;;
65971;SDS011;52726;48.852;9.152;2023-07-08T02:58:35;7.25;;;4.40;;
65971;SDS011;52726;48.852;9.152;2023-07-08T03:01:01;9.38;;;4.65;;
65971;SDS011;52726;48.852;9.152;2023-07-08T03:03:26;8.18;;;4.22;;
65971;SDS011;52726;48.852;9.152;2023-07-08T03:06:00;10.43;;;4.35;;
65971;SDS011;52726;48.852;9.152;2023-07-08T03:08:27;8.40;;;4.50;;
65971;SDS011;52726;48.852;9.152;2023-07-08T03:10:55;11.25;;;4.85;;
65971;SDS011;52726;48.852;9.152;2023-07-08T03:13:26;8.50;;;4.13;;
65971;SDS011;52726;48.852;9.152;2023-07-08T03:15:51;8.98;;;4.10;;
65971;SDS011;52726;48.852;9.152;2023-07-08T03:18:17;7.65;;;4.38;;
65971;SDS011;52726;48.852;9.152;2023-07-08T03:20:43;7.65;;;3.40;;
65971;SDS011;52726;48.852;9.152;2023-07-08T03:23:11;8.18;;;4.18;;
65971;SDS011;52726;48.852;9.152;2023-07-08T03:25:37;8.32;;;4.07;;
65971;SDS011;52726;48.852;9.152;2023-07-08T03:28:03;8.13;;;4.32;;
65971;SDS011;52726;48.852;9.152;2023-07-08T03:30:31;10.27;;;5.60;;
65971;SDS011;52726;48.852;9.152;2023-07-08T03:32:57;9.65;;;4.18;;
65971;SDS011;52726;48.852;9.152;2023-07-08T03:35:22;7.13;;;4.03;;
65971;SDS011;52726;48.852;9.152;2023-07-08T03:37:48;9.23;;;4.68;;
65971;SDS011;52726;48.852;9.152;2023-07-08T03:40:13;7.93;;;4.95;;
65971;SDS011;52726;48.852;9.152;2023-07-08T03:42:38;11.90;;;4.45;;
65971;SDS011;52726;48.852;9.152;2023-07-08T03:45:04;9.70;;;4.82;;
65971;SDS011;52726;48.852;9.152;2023-07-08T03:47:30;8.57;;;4.60;;
65971;SDS011;52726;48.852;9.152;2023-07-08T03:49:55;6.95;;;4.10;;
65971;SDS011;52726;48.852;9.152;2023-07-08T03:52:20;11.07;;;4.78;;
65971;SDS011;52726;48.852;9.152;2023-07-08T03:54:46;8.00;;;4.22;;
65971;SDS011;52726;48.852;9.152;2023-07-08T03:57:11;9.27;;;4.95;;
65971;SDS011;52726;48.852;9.152;2023-07-08T03:59:37;8.68;;;4.88;;
65971;SDS011;52726;48.852;9.152;2023-07-08T04:02:03;10.65;;;4.85;;
65971;SDS011;52726;48.852;9.152;2023-07-08T04:04:28;9.65;;;4.60;;
65971;SDS011;52726;48.852;9.152;2023-07-08T04:06:54;9.07;;;4.65;;
65971;SDS011;52726;48.852;9.152;2023-07-08T04:09:19;7.75;;;4.50;;
65971;SDS011;52726;48.852;9.152;2023-07-08T04:11:45;8.32;;;4.47;;
65971;SDS011;52726;48.852;9.152;2023-07-08T04:14:11;6.70;;;4.35;;
65971;SDS011;52726;48.852;9.152;2023-07-08T04:16:48;7.63;;;3.97;;
65971;SDS011;52726;48.852;9.152;2023-07-08T04:19:16;10.98;;;4.65;;
65971;SDS011;52726;48.852;9.152;2023-07-08T04:21:42;14.48;;;5.60;;
65971;SDS011;52726;48.852;9.152;2023-07-08T04:24:13;6.57;;;4.35;;
65971;SDS011;52726;48.852;9.152;2023-07-08T04:26:39;9.25;;;4.72;;
65971;SDS011;52726;48.852;9.152;2023-07-08T04:29:12;11.93;;;5.25;;
65971;SDS011;52726;48.852;9.152;2023-07-08T04:31:39;8.90;;;4.68;;
65971;SDS011;52726;48.852;9.152;2023-07-08T04:34:04;9.18;;;4.50;;
65971;SDS011;52726;48.852;9.152;2023-07-08T04:36:31;10.13;;;5.20;;
65971;SDS011;52726;48.852;9.152;2023-07-08T04:38:56;10.27;;;5.13;;
65971;SDS011;52726;48.852;9.152;2023-07-08T04:41:23;7.15;;;4.78;;
65971;SDS011;52726;48.852;9.152;2023-07-08T04:43:50;9.27;;;4.40;;
65971;SDS011;52726;48.852;9.152;2023-07-08T04:46:40;10.00;;;4.97;;
65971;SDS011;52726;48.852;9.152;2023-07-08T04:49:16;7.78;;;4.53;;
65971;SDS011;52726;48.852;9.152;2023-07-08T04:51:42;12.63;;;4.57;;
65971;SDS011;52726;48.852;9.152;2023-07-08T04:54:07;8.15;;;4.50;;
65971;SDS011;52726;48.852;9.152;2023-07-08T04:56:37;10.15;;;5.18;;
65971;SDS011;52726;48.852;9.152;2023-07-08T04:59:03;9.10;;;4.70;;
65971;SDS011;52726;48.852;9.152;2023-07-08T05:01:29;8.68;;;5.13;;
65971;SDS011;52726;48.852;9.152;2023-07-08T05:03:54;10.60;;;5.13;;
65971;SDS011;52726;48.852;9.152;2023-07-08T05:06:20;9.50;;;5.00;;
65971;SDS011;52726;48.852;9.152;2023-07-08T05:08:45;9.98;;;4.63;;
65971;SDS011;52726;48.852;9.152;2023-07-08T05:11:10;8.23;;;4.70;;
65971;SDS011;52726;48.852;9.152;2023-07-08T05:13:36;11.80;;;5.40;;
65971;SDS011;52726;48.852;9.152;2023-07-08T05:16:01;9.10;;;5.35;;
65971;SDS011;52726;48.852;9.152;2023-07-08T05:18:26;9.93;;;5.05;;
65971;SDS011;52726;48.852;9.152;2023-07-08T05:20:52;8.82;;;4.90;;
65971;SDS011;52726;48.852;9.152;2023-07-08T05:23:19;10.15;;;5.32;;
65971;SDS011;52726;48.852;9.152;2023-07-08T05:25:45;7.97;;;4.57;;
65971;SDS011;52726;48.852;9.152;2023-07-08T05:28:10;11.45;;;5.13;;
65971;SDS011;52726;48.852;9.152;2023-07-08T05:30:36;9.38;;;4.50;;
65971;SDS011;52726;48.852;9.152;2023-07-08T05:33:01;8.40;;;5.05;;
65971;SDS011;52726;48.852;9.152;2023-07-08T05:35:26;10.07;;;4.68;;
65971;SDS011;52726;48.852;9.152;2023-07-08T05:37:52;10.80;;;4.68;;
65971;SDS011;52726;48.852;9.152;2023-07-08T05:40:17;8.32;;;4.57;;
65971;SDS011;52726;48.852;9.152;2023-07-08T05:42:42;8.60;;;4.57;;
65971;SDS011;52726;48.852;9.152;2023-07-08T05:45:08;7.85;;;4.18;;
65971;SDS011;52726;48.852;9.152;2023-07-08T05:47:35;9.77;;;4.85;;
65971;SDS011;52726;48.852;9.152;2023-07-08T05:50:01;10.65;;;4.70;;
65971;SDS011;52726;48.852;9.152;2023-07-08T05:52:27;9.25;;;4.40;;
65971;SDS011;52726;48.852;9.152;2023-07-08T05:54:52;8.70;;;4.40;;
65971;SDS011;52726;48.852;9.152;2023-07-08T05:57:17;8.13;;;4.72;;
65971;SDS011;52726;48.852;9.152;2023-07-08T05:59:43;11.07;;;5.25;;
65971;SDS011;52726;48.852;9.152;2023-07-08T06:02:09;9.98;;;4.93;;
65971;SDS011;52726;48.852;9.152;2023-07-08T06:04:35;6.97;;;4.40;;
65971;SDS011;52726;48.852;9.152;2023-07-08T06:07:01;10.25;;;5.13;;
65971;SDS011;52726;48.852;9.152;2023-07-08T06:09:26;8.02;;;4.53;;
65971;SDS011;52726;48.852;9.152;2023-07-08T06:11:51;9.02;;;4.88;;
65971;SDS011;52726;48.852;9.152;2023-07-08T06:14:17;8.73;;;4.30;;
65971;SDS011;52726;48.852;9.152;2023-07-08T06:16:42;11.13;;;5.55;;
65971;SDS011;52726;48.852;9.152;2023-07-08T06:19:07;9.38;;;4.70;;
65971;SDS011;52726;48.852;9.152;2023-07-08T06:21:33;7.70;;;4.57;;
65971;SDS011;52726;48.852;9.152;2023-07-08T06:23:58;8.68;;;4.95;;
65971;SDS011;52726;48.852;9.152;2023-07-08T06:26:24;10.77;;;4.53;;
65971;SDS011;52726;48.852;9.152;2023-07-08T06:28:49;20.40;;;6.60;;
65971;SDS011;52726;48.852;9.152;2023-07-08T06:31:15;9.00;;;4.65;;
65971;SDS011;52726;48.852;9.152;2023-07-08T06:33:40;7.78;;;4.35;;
65971;SDS011;52726;48.852;9.152;2023-07-08T06:36:06;6.20;;;4.22;;
65971;SDS011;52726;48.852;9.152;2023-07-08T06:38:32;6.65;;;4.20;;
65971;SDS011;52726;48.852;9.152;2023-07-08T06:40:58;8.38;;;4.25;;
65971;SDS011;52726;48.852;9.152;2023-07-08T06:43:23;6.18;;;3.63;;
65971;SDS011;52726;48.852;9.152;2023-07-08T06:45:49;6.32;;;3.90;;
65971;SDS011;52726;48.852;9.152;2023-07-08T06:48:32;6.50;;;3.95;;
65971;SDS011;52726;48.852;9.152;2023-07-08T06:51:37;6.00;;;3.63;;
65971;SDS011;52726;48.852;9.152;2023-07-08T06:54:03;5.68;;;3.63;;
65971;SDS011;52726;48.852;9.152;2023-07-08T06:56:36;7.32;;;3.83;;
65971;SDS011;52726;48.852;9.152;2023-07-08T06:59:05;7.97;;;3.70;;
65971;SDS011;52726;48.852;9.152;2023-07-08T07:01:30;6.78;;;3.78;;
65971;SDS011;52726;48.852;9.152;2023-07-08T07:03:56;6.20;;;3.22;;
65971;SDS011;52726;48.852;9.152;2023-07-08T07:06:21;7.90;;;3.80;;
65971;SDS011;52726;48.852;9.152;2023-07-08T07:08:46;7.57;;;3.63;;
65971;SDS011;52726;48.852;9.152;2023-07-08T07:11:12;6.63;;;3.72;;
65971;SDS011;52726;48.852;9.152;2023-07-08T07:13:37;5.88;;;3.72;;
65971;SDS011;52726;48.852;9.152;2023-07-08T07:16:03;6.38;;;3.92;;
65971;SDS011;52726;48.852;9.152;2023-07-08T07:18:28;5.53;;;3.25;;
65971;SDS011;52726;48.852;9.152;2023-07-08T07:20:54;7.47;;;4.00;;
65971;SDS011;52726;48.852;9.152;2023-07-08T07:23:20;8.18;;;4.10;;
65971;SDS011;52726;48.852;9.152;2023-07-08T07:25:46;9.55;;;3.85;;
65971;SDS011;52726;48.852;9.152;2023-07-08T07:28:15;5.22;;;3.75;;
65971;SDS011;52726;48.852;9.152;2023-07-08T07:30:42;6.20;;;3.90;;
65971;SDS011;52726;48.852;9.152;2023-07-08T07:33:09;7.53;;;3.83;;
65971;SDS011;52726;48.852;9.152;2023-07-08T07:35:35;8.40;;;3.70;;
65971;SDS011;52726;48.852;9.152;2023-07-08T07:38:00;8.05;;;3.92;;
65971;SDS011;52726;48.852;9.152;2023-07-08T07:40:25;9.68;;;4.03;;
65971;SDS011;52726;48.852;9.152;2023-07-08T07:42:51;8.00;;;3.97;;
65971;SDS011;52726;48.852;9.152;2023-07-08T07:45:16;10.40;;;3.97;;
65971;SDS011;52726;48.852;9.152;2023-07-08T07:47:41;9.25;;;4.20;;
65971;SDS011;52726;48.852;9.152;2023-07-08T07:50:07;7.60;;;3.90;;
65971;SDS011;52726;48.852;9.152;2023-07-08T07:52:34;9.80;;;4.68;;
65971;SDS011;52726;48.852;9.152;2023-07-08T07:55:00;6.50;;;4.10;;
65971;SDS011;52726;48.852;9.152;2023-07-08T07:57:26;7.00;;;3.75;;
65971;SDS011;52726;48.852;9.152;2023-07-08T07:59:51;7.18;;;3.72;;
65971;SDS011;52726;48.852;9.152;2023-07-08T08:02:17;7.13;;;4.10;;
65971;SDS011;52726;48.852;9.152;2023-07-08T08:04:43;6.15;;;3.70;;
65971;SDS011;52726;48.852;9.152;2023-07-08T08:07:08;6.47;;;3.83;;
65971;SDS011;52726;48.852;9.152;2023-07-08T08:09:34;7.72;;;3.92;;
65971;SDS011;52726;48.852;9.152;2023-07-08T08:12:01;6.10;;;3.78;;
65971;SDS011;52726;48.852;9.152;2023-07-08T08:14:27;9.25;;;4.03;;
65971;SDS011;52726;48.852;9.152;2023-07-08T08:16:53;10.23;;;3.88;;
65971;SDS011;52726;48.852;9.152;2023-07-08T08:19:18;8.38;;;4.47;;
65971;SDS011;52726;48.852;9.152;2023-07-08T08:21:43;5.47;;;3.72;;
65971;SDS011;52726;48.852;9.152;2023-07-08T08:24:09;7.80;;;4.10;;
65971;SDS011;52726;48.852;9.152;2023-07-08T08:26:35;9.48;;;3.97;;
65971;SDS011;52726;48.852;9.152;2023-07-08T08:29:00;7.30;;;3.75;;
65971;SDS011;52726;48.852;9.152;2023-07-08T08:31:26;8.55;;;3.50;;
65971;SDS011;52726;48.852;9.152;2023-07-08T08:33:51;4.95;;;3.20;;
65971;SDS011;52726;48.852;9.152;2023-07-08T08:36:17;6.97;;;3.47;;
65971;SDS011;52726;48.852;9.152;2023-07-08T08:38:42;8.65;;;4.28;;
65971;SDS011;52726;48.852;9.152;2023-07-08T08:41:15;6.10;;;3.60;;
65971;SDS011;52726;48.852;9.152;2023-07-08T08:43:44;6.35;;;3.17;;
65971;SDS011;52726;48.852;9.152;2023-07-08T08:46:59;5.97;;;3.50;;
65971;SDS011;52726;48.852;9.152;2023-07-08T08:51:47;5.10;;;3.20;;
65971;SDS011;52726;48.852;9.152;2023-07-08T08:54:13;5.78;;;3.60;;
65971;SDS011;52726;48.852;9.152;2023-07-08T08:59:42;16.02;;;3.88;;
65971;SDS011;52726;48.852;9.152;2023-07-08T09:02:21;5.93;;;3.33;;
65971;SDS011;52726;48.852;9.152;2023-07-08T09:04:53;9.70;;;3.05;;
65971;SDS011;52726;48.852;9.152;2023-07-08T09:07:19;7.00;;;2.80;;
65971;SDS011;52726;48.852;9.152;2023-07-08T09:12:18;5.05;;;3.20;;
65971;SDS011;52726;48.852;9.152;2023-07-08T09:17:28;6.63;;;3.05;;
65971;SDS011;52726;48.852;9.152;2023-07-08T09:24:59;6.63;;;2.30;;
65971;SDS011;52726;48.852;9.152;2023-07-08T09:27:29;9.48;;;2.22;;
65971;SDS011;52726;48.852;9.152;2023-07-08T09:29:55;3.58;;;2.10;;
65971;SDS011;52726;48.852;9.152;2023-07-08T09:32:24;2.22;;;1.63;;
65971;SDS011;52726;48.852;9.152;2023-07-08T09:34:53;3.90;;;1.73;;
65971;SDS011;52726;48.852;9.152;2023-07-08T09:39:47;5.18;;;2.10;;
65971;SDS011;52726;48.852;9.152;2023-07-08T09:42:12;3.35;;;1.38;;
65971;SDS011;52726;48.852;9.152;2023-07-08T09:44:39;2.22;;;1.35;;
65971;SDS011;52726;48.852;9.152;2023-07-08T09:47:08;4.25;;;1.30;;
65971;SDS011;52726;48.852;9.152;2023-07-08T09:49:48;3.78;;;1.63;;
65971;SDS011;52726;48.852;9.152;2023-07-08T09:52:14;3.90;;;1.75;;
65971;SDS011;52726;48.852;9.152;2023-07-08T09:54:40;3.28;;;1.58;;
65971;SDS011;52726;48.852;9.152;2023-07-08T09:59:54;1.67;;;1.17;;
65971;SDS011;52726;48.852;9.152;2023-07-08T10:02:31;2.60;;;1.75;;
65971;SDS011;52726;48.852;9.152;2023-07-08T10:07:44;3.60;;;1.40;;
65971;SDS011;52726;48.852;9.152;2023-07-08T10:10:12;3.17;;;1.63;;
65971;SDS011;52726;48.852;9.152;2023-07-08T10:12:43;3.47;;;1.80;;
65971;SDS011;52726;48.852;9.152;2023-07-08T10:15:27;3.22;;;2.00;;
65971;SDS011;52726;48.852;9.152;2023-07-08T10:17:57;2.03;;;1.60;;
65971;SDS011;52726;48.852;9.152;2023-07-08T10:20:22;2.67;;;1.83;;
65971;SDS011;52726;48.852;9.152;2023-07-08T10:23:13;3.25;;;1.67;;
65971;SDS011;52726;48.852;9.152;2023-07-08T10:28:44;3.13;;;1.80;;
65971;SDS011;52726;48.852;9.152;2023-07-08T10:31:35;1.65;;;1.50;;
65971;SDS011;52726;48.852;9.152;2023-07-08T10:34:36;3.40;;;2.00;;
65971;SDS011;52726;48.852;9.152;2023-07-08T10:42:59;2.75;;;2.00;;
65971;SDS011;52726;48.852;9.152;2023-07-08T10:45:29;4.70;;;2.13;;
65971;SDS011;52726;48.852;9.152;2023-07-08T10:53:26;6.18;;;3.20;;
65971;SDS011;52726;48.852;9.152;2023-07-08T10:55:59;6.18;;;3.10;;
65971;SDS011;52726;48.852;9.152;2023-07-08T10:58:46;5.32;;;3.13;;
65971;SDS011;52726;48.852;9.152;2023-07-08T11:09:16;4.88;;;3.05;;
65971;SDS011;52726;48.852;9.152;2023-07-08T11:11:53;5.40;;;2.78;;
65971;SDS011;52726;48.852;9.152;2023-07-08T11:17:21;4.00;;;2.83;;
65971;SDS011;52726;48.852;9.152;2023-07-08T11:19:56;6.07;;;2.50;;
65971;SDS011;52726;48.852;9.152;2023-07-08T11:22:27;5.22;;;2.40;;
65971;SDS011;52726;48.852;9.152;2023-07-08T11:24:55;7.15;;;3.10;;
65971;SDS011;52726;48.852;9.152;2023-07-08T11:27:31;4.80;;;2.72;;
65971;SDS011;52726;48.852;9.152;2023-07-08T11:30:05;3.67;;;2.40;;
65971;SDS011;52726;48.852;9.152;2023-07-08T11:32:39;4.22;;;2.40;;
65971;SDS011;52726;48.852;9.152;2023-07-08T11:35:07;8.93;;;2.38;;
65971;SDS011;52726;48.852;9.152;2023-07-08T11:37:43;4.07;;;2.35;;
65971;SDS011;52726;48.852;9.152;2023-07-08T11:40:17;3.60;;;2.30;;
65971;SDS011;52726;48.852;9.152;2023-07-08T11:42:48;3.15;;;2.17;;
65971;SDS011;52726;48.852;9.152;2023-07-08T11:47:44;4.65;;;2.60;;
65971;SDS011;52726;48.852;9.152;2023-07-08T11:50:19;5.80;;;2.50;;
65971;SDS011;52726;48.852;9.152;2023-07-08T11:56:27;4.78;;;2.28;;
65971;SDS011;52726;48.852;9.152;2023-07-08T12:07:32;3.38;;;2.38;;
65971;SDS011;52726;48.852;9.152;2023-07-08T12:10:46;4.75;;;2.40;;
65971;SDS011;52726;48.852;9.152;2023-07-08T12:12:52;5.03;;;2.25;;
65971;SDS011;52726;48.852;9.152;2023-07-08T12:15:28;2.28;;;1.80;;
65971;SDS011;52726;48.852;9.152;2023-07-08T12:18:14;4.20;;;2.60;;
65971;SDS011;52726;48.852;9.152;2023-07-08T12:20:41;4.53;;;2.38;;
65971;SDS011;52726;48.852;9.152;2023-07-08T12:23:17;4.80;;;2.10;;
65971;SDS011;52726;48.852;9.152;2023-07-08T12:25:44;3.42;;;2.15;;
65971;SDS011;52726;48.852;9.152;2023-07-08T12:28:10;4.53;;;2.33;;
65971;SDS011;52726;48.852;9.152;2023-07-08T12:30:42;3.75;;;2.22;;
65971;SDS011;52726;48.852;9.152;2023-07-08T12:33:13;2.42;;;2.10;;
65971;SDS011;52726;48.852;9.152;2023-07-08T12:35:42;2.80;;;1.85;;
65971;SDS011;52726;48.852;9.152;2023-07-08T12:38:16;4.53;;;2.25;;
65971;SDS011;52726;48.852;9.152;2023-07-08T12:40:43;3.20;;;2.10;;
65971;SDS011;52726;48.852;9.152;2023-07-08T12:43:11;3.42;;;1.85;;
65971;SDS011;52726;48.852;9.152;2023-07-08T12:45:37;4.53;;;2.50;;
65971;SDS011;52726;48.852;9.152;2023-07-08T12:48:03;4.60;;;2.25;;
65971;SDS011;52726;48.852;9.152;2023-07-08T12:53:23;5.68;;;1.75;;
65971;SDS011;52726;48.852;9.152;2023-07-08T12:55:48;3.65;;;2.10;;
65971;SDS011;52726;48.852;9.152;2023-07-08T12:58:24;2.55;;;2.08;;
65971;SDS011;52726;48.852;9.152;2023-07-08T13:01:15;2.58;;;1.90;;
65971;SDS011;52726;48.852;9.152;2023-07-08T13:03:42;4.93;;;2.05;;
65971;SDS011;52726;48.852;9.152;2023-07-08T13:08:39;3.78;;;2.15;;
65971;SDS011;52726;48.852;9.152;2023-07-08T13:11:05;2.53;;;2.00;;
65971;SDS011;52726;48.852;9.152;2023-07-08T13:13:34;3.50;;;2.10;;
65971;SDS011;52726;48.852;9.152;2023-07-08T13:16:02;2.90;;;2.17;;
65971;SDS011;52726;48.852;9.152;2023-07-08T13:20:56;5.45;;;2.20;;
65971;SDS011;52726;48.852;9.152;2023-07-08T13:23:23;3.00;;;2.05;;
65971;SDS011;52726;48.852;9.152;2023-07-08T13:25:51;1.92;;;1.70;;
65971;SDS011;52726;48.852;9.152;2023-07-08T13:28:19;2.83;;;1.85;;
65971;SDS011;52726;48.852;9.152;2023-07-08T13:30:53;3.22;;;2.10;;
65971;SDS011;52726;48.852;9.152;2023-07-08T13:33:20;3.20;;;1.75;;
65971;SDS011;52726;48.852;9.152;2023-07-08T13:35:50;4.40;;;1.95;;
65971;SDS011;52726;48.852;9.152;2023-07-08T13:38:21;4.63;;;2.28;;
65971;SDS011;52726;48.852;9.152;2023-07-08T13:40:53;2.60;;;1.92;;
65971;SDS011;52726;48.852;9.152;2023-07-08T13:52:25;5.20;;;2.08;;
65971;SDS011;52726;48.852;9.152;2023-07-08T13:54:51;4.53;;;2.20;;
65971;SDS011;52726;48.852;9.152;2023-07-08T13:57:20;6.85;;;2.15;;
65971;SDS011;52726;48.852;9.152;2023-07-08T13:59:48;3.10;;;2.03;;
65971;SDS011;52726;48.852;9.152;2023-07-08T14:02:20;4.18;;;2.05;;
65971;SDS011;52726;48.852;9.152;2023-07-08T14:04:49;5.00;;;2.00;;
65971;SDS011;52726;48.852;9.152;2023-07-08T14:07:19;5.30;;;1.83;;
65971;SDS011;52726;48.852;9.152;2023-07-08T14:09:47;2.33;;;1.90;;
65971;SDS011;52726;48.852;9.152;2023-07-08T14:12:13;2.13;;;1.70;;
65971;SDS011;52726;48.852;9.152;2023-07-08T14:14:38;2.35;;;1.60;;
65971;SDS011;52726;48.852;9.152;2023-07-08T14:17:04;6.03;;;2.10;;
65971;SDS011;52726;48.852;9.152;2023-07-08T14:19:30;4.65;;;1.75;;
65971;SDS011;52726;48.852;9.152;2023-07-08T14:22:00;2.72;;;1.73;;
65971;SDS011;52726;48.852;9.152;2023-07-08T14:24:39;3.28;;;2.10;;
65971;SDS011;52726;48.852;9.152;2023-07-08T14:27:05;3.55;;;1.90;;
65971;SDS011;52726;48.852;9.152;2023-07-08T14:29:36;3.20;;;1.98;;
65971;SDS011;52726;48.852;9.152;2023-07-08T14:32:02;2.05;;;1.73;;
65971;SDS011;52726;48.852;9.152;2023-07-08T14:34:27;6.20;;;1.80;;
65971;SDS011;52726;48.852;9.152;2023-07-08T14:36:55;6.40;;;2.15;;
65971;SDS011;52726;48.852;9.152;2023-07-08T14:39:21;4.65;;;1.50;;
65971;SDS011;52726;48.852;9.152;2023-07-08T14:41:48;7.38;;;1.73;;
65971;SDS011;52726;48.852;9.152;2023-07-08T14:46:45;5.45;;;1.90;;
65971;SDS011;52726;48.852;9.152;2023-07-08T14:49:14;3.60;;;1.92;;
65971;SDS011;52726;48.852;9.152;2023-07-08T14:51:41;3.42;;;1.77;;
65971;SDS011;52726;48.852;9.152;2023-07-08T14:54:06;4.35;;;1.95;;
65971;SDS011;52726;48.852;9.152;2023-07-08T14:56:31;4.60;;;1.75;;
65971;SDS011;52726;48.852;9.152;2023-07-08T14:58:57;3.35;;;1.83;;
65971;SDS011;52726;48.852;9.152;2023-07-08T15:01:23;3.25;;;1.70;;
65971;SDS011;52726;48.852;9.152;2023-07-08T15:03:49;3.22;;;2.20;;
65971;SDS011;52726;48.852;9.152;2023-07-08T15:06:14;2.80;;;1.75;;
65971;SDS011;52726;48.852;9.152;2023-07-08T15:08:40;3.80;;;1.88;;
65971;SDS011;52726;48.852;9.152;2023-07-08T15:11:08;4.65;;;1.83;;
65971;SDS011;52726;48.852;9.152;2023-07-08T15:13:35;3.28;;;2.00;;
65971;SDS011;52726;48.852;9.152;2023-07-08T15:16:01;6.57;;;2.03;;
65971;SDS011;52726;48.852;9.152;2023-07-08T15:18:26;4.55;;;1.88;;
65971;SDS011;52726;48.852;9.152;2023-07-08T15:20:52;3.30;;;2.10;;
65971;SDS011;52726;48.852;9.152;2023-07-08T15:23:17;4.20;;;2.20;;
65971;SDS011;52726;48.852;9.152;2023-07-08T15:25:44;6.63;;;1.85;;
65971;SDS011;52726;48.852;9.152;2023-07-08T15:28:16;3.25;;;2.00;;
65971;SDS011;52726;48.852;9.152;2023-07-08T15:30:59;3.03;;;1.90;;
65971;SDS011;52726;48.852;9.152;2023-07-08T15:33:27;3.65;;;1.85;;
65971;SDS011;52726;48.852;9.152;2023-07-08T15:35:52;3.05;;;2.08;;
65971;SDS011;52726;48.852;9.152;2023-07-08T15:38:18;3.05;;;1.88;;
65971;SDS011;52726;48.852;9.152;2023-07-08T15:40:44;4.35;;;2.35;;
65971;SDS011;52726;48.852;9.152;2023-07-08T15:43:11;5.18;;;2.28;;
65971;SDS011;52726;48.852;9.152;2023-07-08T15:45:38;3.45;;;2.00;;
65971;SDS011;52726;48.852;9.152;2023-07-08T15:48:05;3.13;;;2.08;;
65971;SDS011;52726;48.852;9.152;2023-07-08T15:50:36;4.13;;;2.00;;
65971;SDS011;52726;48.852;9.152;2023-07-08T15:53:02;5.40;;;2.25;;
65971;SDS011;52726;48.852;9.152;2023-07-08T15:55:29;4.47;;;2.38;;
65971;SDS011;52726;48.852;9.152;2023-07-08T15:57:59;2.92;;;1.95;;
65971;SDS011;52726;48.852;9.152;2023-07-08T16:00:27;4.75;;;1.83;;
65971;SDS011;52726;48.852;9.152;2023-07-08T16:03:03;3.53;;;1.80;;
65971;SDS011;52726;48.852;9.152;2023-07-08T16:05:31;3.33;;;1.67;;
65971;SDS011;52726;48.852;9.152;2023-07-08T16:08:00;2.55;;;1.95;;
65971;SDS011;52726;48.852;9.152;2023-07-08T16:10:26;5.05;;;2.00;;
65971;SDS011;52726;48.852;9.152;2023-07-08T16:12:52;3.13;;;2.13;;
65971;SDS011;52726;48.852;9.152;2023-07-08T16:15:25;3.33;;;1.80;;
65971;SDS011;52726;48.852;9.152;2023-07-08T16:17:57;3.13;;;1.88;;
65971;SDS011;52726;48.852;9.152;2023-07-08T16:20:27;3.28;;;1.92;;
65971;SDS011;52726;48.852;9.152;2023-07-08T16:22:54;7.43;;;2.08;;